sensor_id;sensor_type;location;lat;lon;timestamp;pressure;altitude;pressure_sealevel;temperature;humidity
5996;BME280;3026;53.612;7.278;2022-09-20T00:01:03;101895.44;;;12.49;100.00
5996;BME280;3026;53.612;7.278;2022-09-20T00:03:31;101879.00;;;12.49;100.00
5996;BME280;3026;53.612;7.278;2022-09-20T00:05:59;101877.31;;;12.48;100.00
5996;BME280;3026;53.612;7.278;2022-09-20T00:08:31;101876.44;;;12.47;100.00
5996;BME280;3026;53.612;7.278;2022-09-20T00:11:01;101879.34;;;12.46;100.00
5996;BME280;3026;53.612;7.278;2022-09-20T00:13:29;101884.81;;;12.46;100.00
5996;BME280;3026;53.612;7.278;2022-09-20T00:15:56;101872.16;;;12.45;100.00
5996;BME280;3026;53.612;7.278;2022-09-20T00:18:23;101882.25;;;12.44;100.00
5996;BME280;3026;53.612;7.278;2022-09-20T00:20:50;101880.38;;;12.45;100.00
5996;BME280;3026;53.612;7.278;2022-09-20T00:23:18;101883.09;;;12.45;100.00
5996;BME280;3026;53.612;7.278;2022-09-20T00:25:45;101877.63;;;12.45;100.00
5996;BME280;3026;53.612;7.278;2022-09-20T00:28:21;101880.38;;;12.45;100.00
5996;BME280;3026;53.612;7.278;2022-09-20T00:30:48;101875.91;;;12.44;100.00
5996;BME280;3026;53.612;7.278;2022-09-20T00:33:14;101877.63;;;12.45;100.00
5996;BME280;3026;53.612;7.278;2022-09-20T00:35:42;101873.19;;;12.44;100.00
5996;BME280;3026;53.612;7.278;2022-09-20T00:38:08;101876.94;;;12.43;100.00
5996;BME280;3026;53.612;7.278;2022-09-20T00:40:35;101881.72;;;12.41;100.00
5996;BME280;3026;53.612;7.278;2022-09-20T00:43:02;101872.81;;;12.39;100.00
5996;BME280;3026;53.612;7.278;2022-09-20T00:45:30;101891.22;;;12.37;100.00
5996;BME280;3026;53.612;7.278;2022-09-20T00:48:00;101883.50;;;12.32;100.00
5996;BME280;3026;53.612;7.278;2022-09-20T00:50:32;101894.78;;;12.29;100.00
5996;BME280;3026;53.612;7.278;2022-09-20T00:53:05;101888.75;;;12.25;100.00
5996;BME280;3026;53.612;7.278;2022-09-20T00:55:34;101898.28;;;12.21;100.00
5996;BME280;3026;53.612;7.278;2022-09-20T00:58:03;101897.59;;;12.19;100.00
5996;BME280;3026;53.612;7.278;2022-09-20T01:00:32;101912.28;;;12.18;100.00
5996;BME280;3026;53.612;7.278;2022-09-20T01:03:02;101902.38;;;12.17;100.00
5996;BME280;3026;53.612;7.278;2022-09-20T01:05:31;101904.69;;;12.12;100.00
5996;BME280;3026;53.612;7.278;2022-09-20T01:07:58;101903.31;;;12.08;100.00
5996;BME280;3026;53.612;7.278;2022-09-20T01:10:25;101906.50;;;12.04;100.00
5996;BME280;3026;53.612;7.278;2022-09-20T01:12:53;101902.53;;;11.98;100.00
5996;BME280;3026;53.612;7.278;2022-09-20T01:15:21;101899.41;;;11.93;100.00
5996;BME280;3026;53.612;7.278;2022-09-20T01:17:51;101897.66;;;11.92;100.00
5996;BME280;3026;53.612;7.278;2022-09-20T01:20:21;101906.88;;;11.91;100.00
5996;BME280;3026;53.612;7.278;2022-09-20T01:23:03;101900.88;;;11.87;100.00
5996;BME280;3026;53.612;7.278;2022-09-20T01:26:00;101911.28;;;11.84;100.00
5996;BME280;3026;53.612;7.278;2022-09-20T01:28:34;101896.91;;;11.82;100.00
5996;BME280;3026;53.612;7.278;2022-09-20T01:31:06;101898.63;;;11.83;100.00
5996;BME280;3026;53.612;7.278;2022-09-20T01:33:39;101899.75;;;11.80;100.00
5996;BME280;3026;53.612;7.278;2022-09-20T01:36:13;101898.91;;;11.80;100.00
5996;BME280;3026;53.612;7.278;2022-09-20T01:38:44;101903.50;;;11.79;100.00
5996;BME280;3026;53.612;7.278;2022-09-20T01:41:19;101898.06;;;11.79;100.00
5996;BME280;3026;53.612;7.278;2022-09-20T01:43:52;101901.06;;;11.76;100.00
5996;BME280;3026;53.612;7.278;2022-09-20T01:46:28;101899.19;;;11.77;100.00
5996;BME280;3026;53.612;7.278;2022-09-20T01:49:05;101917.63;;;11.75;100.00
5996;BME280;3026;53.612;7.278;2022-09-20T01:54:58;101909.09;;;11.78;100.00
5996;BME280;3026;53.612;7.278;2022-09-20T01:58:17;101898.63;;;11.83;100.00
5996;BME280;3026;53.612;7.278;2022-09-20T02:01:14;101921.56;;;11.90;100.00
5996;BME280;3026;53.612;7.278;2022-09-20T02:04:16;101924.38;;;11.98;100.00
5996;BME280;3026;53.612;7.278;2022-09-20T02:07:00;101923.06;;;12.02;100.00
5996;BME280;3026;53.612;7.278;2022-09-20T02:09:53;101924.63;;;12.05;100.00
5996;BME280;3026;53.612;7.278;2022-09-20T02:12:45;101928.22;;;12.05;100.00
5996;BME280;3026;53.612;7.278;2022-09-20T02:15:33;101924.47;;;12.06;100.00
5996;BME280;3026;53.612;7.278;2022-09-20T02:18:19;101926.50;;;12.04;100.00
5996;BME280;3026;53.612;7.278;2022-09-20T02:20:57;101938.75;;;12.00;100.00
5996;BME280;3026;53.612;7.278;2022-09-20T02:23:39;101926.41;;;11.96;100.00
5996;BME280;3026;53.612;7.278;2022-09-20T02:26:30;101923.28;;;11.91;100.00
5996;BME280;3026;53.612;7.278;2022-09-20T02:29:03;101923.28;;;11.91;100.00
5996;BME280;3026;53.612;7.278;2022-09-20T02:31:52;101930.78;;;11.89;100.00
5996;BME280;3026;53.612;7.278;2022-09-20T02:34:36;101924.63;;;11.87;100.00
5996;BME280;3026;53.612;7.278;2022-09-20T02:40:13;101926.50;;;11.86;100.00
5996;BME280;3026;53.612;7.278;2022-09-20T02:42:46;101934.53;;;11.88;100.00
5996;BME280;3026;53.612;7.278;2022-09-20T02:45:21;101930.78;;;11.89;100.00
5996;BME280;3026;53.612;7.278;2022-09-20T02:47:52;101929.06;;;11.88;100.00
5996;BME280;3026;53.612;7.278;2022-09-20T02:50:27;101927.66;;;11.84;100.00
5996;BME280;3026;53.612;7.278;2022-09-20T02:53:07;101933.13;;;11.84;100.00
5996;BME280;3026;53.612;7.278;2022-09-20T02:55:41;101922.19;;;11.84;100.00
5996;BME280;3026;53.612;7.278;2022-09-20T02:58:24;101927.94;;;11.81;100.00
5996;BME280;3026;53.612;7.278;2022-09-20T03:00:57;101924.34;;;11.80;100.00
5996;BME280;3026;53.612;7.278;2022-09-20T03:03:35;101916.16;;;11.80;100.00
5996;BME280;3026;53.612;7.278;2022-09-20T03:06:14;101931.69;;;11.80;100.00
5996;BME280;3026;53.612;7.278;2022-09-20T03:08:49;101919.03;;;11.79;100.00
5996;BME280;3026;53.612;7.278;2022-09-20T03:11:28;101917.00;;;11.81;100.00
5996;BME280;3026;53.612;7.278;2022-09-20T03:14:09;101913.56;;;11.79;100.00
5996;BME280;3026;53.612;7.278;2022-09-20T03:16:47;101910.97;;;11.77;100.00
5996;BME280;3026;53.612;7.278;2022-09-20T03:19:27;101908.41;;;11.76;100.00
5996;BME280;3026;53.612;7.278;2022-09-20T03:22:08;101905.84;;;11.74;100.00
5996;BME280;3026;53.612;7.278;2022-09-20T03:24:47;101905.13;;;11.72;100.00
5996;BME280;3026;53.612;7.278;2022-09-20T03:27:27;101907.28;;;11.68;100.00
5996;BME280;3026;53.612;7.278;2022-09-20T03:30:07;101909.03;;;11.69;100.00
5996;BME280;3026;53.612;7.278;2022-09-20T03:32:51;101912.75;;;11.68;100.00
5996;BME280;3026;53.612;7.278;2022-09-20T03:35:30;101912.75;;;11.68;100.00
5996;BME280;3026;53.612;7.278;2022-09-20T03:38:17;101915.66;;;11.67;100.00
5996;BME280;3026;53.612;7.278;2022-09-20T03:41:16;101915.09;;;11.63;100.00
5996;BME280;3026;53.612;7.278;2022-09-20T03:44:00;101911.34;;;11.64;100.00
5996;BME280;3026;53.612;7.278;2022-09-20T03:46:38;101912.38;;;11.63;100.00
5996;BME280;3026;53.612;7.278;2022-09-20T03:52:36;101914.84;;;11.57;100.00
5996;BME280;3026;53.612;7.278;2022-09-20T03:55:36;101918.59;;;11.56;100.00
5996;BME280;3026;53.612;7.278;2022-09-20T03:58:19;101913.97;;;11.56;100.00
5996;BME280;3026;53.612;7.278;2022-09-20T04:01:03;101913.97;;;11.56;100.00
5996;BME280;3026;53.612;7.278;2022-09-20T04:03:40;101914.84;;;11.57;100.00
5996;BME280;3026;53.612;7.278;2022-09-20T04:06:33;101911.41;;;11.55;100.00
5996;BME280;3026;53.612;7.278;2022-09-20T04:09:24;101911.72;;;11.52;100.00
5996;BME280;3026;53.612;7.278;2022-09-20T04:12:01;101907.13;;;11.52;100.00
5996;BME280;3026;53.612;7.278;2022-09-20T04:14:35;101901.97;;;11.49;100.00
5996;BME280;3026;53.612;7.278;2022-09-20T04:17:16;101907.75;;;11.46;100.00
5996;BME280;3026;53.612;7.278;2022-09-20T04:19:50;101911.63;;;11.44;100.00
5996;BME280;3026;53.612;7.278;2022-09-20T04:22:21;101908.34;;;11.40;100.00
5996;BME280;3026;53.612;7.278;2022-09-20T04:24:52;101912.41;;;11.36;100.00
5996;BME280;3026;53.612;7.278;2022-09-20T04:27:24;101912.69;;;11.33;100.00
5996;BME280;3026;53.612;7.278;2022-09-20T04:29:57;101912.13;;;11.29;100.00
5996;BME280;3026;53.612;7.278;2022-09-20T04:32:30;101924.53;;;11.24;100.00
5996;BME280;3026;53.612;7.278;2022-09-20T04:35:04;101920.50;;;11.18;100.00
5996;BME280;3026;53.612;7.278;2022-09-20T04:37:54;101913.81;;;11.13;100.00
5996;BME280;3026;53.612;7.278;2022-09-20T04:40:33;101914.06;;;11.09;100.00
5996;BME280;3026;53.612;7.278;2022-09-20T04:43:40;101928.34;;;11.03;100.00
5996;BME280;3026;53.612;7.278;2022-09-20T04:46:56;101933.69;;;10.95;100.00
5996;BME280;3026;53.612;7.278;2022-09-20T04:49:56;101936.00;;;10.90;100.00
5996;BME280;3026;53.612;7.278;2022-09-20T04:52:51;101935.56;;;10.85;100.00
5996;BME280;3026;53.612;7.278;2022-09-20T04:55:48;101934.16;;;10.81;100.00
5996;BME280;3026;53.612;7.278;2022-09-20T04:58:46;101951.69;;;10.78;100.00
5996;BME280;3026;53.612;7.278;2022-09-20T05:01:55;101944.63;;;10.76;100.00
5996;BME280;3026;53.612;7.278;2022-09-20T05:10:58;101958.28;;;10.76;100.00
5996;BME280;3026;53.612;7.278;2022-09-20T05:13:33;101964.31;;;10.79;100.00
5996;BME280;3026;53.612;7.278;2022-09-20T05:16:09;101962.00;;;10.85;100.00
5996;BME280;3026;53.612;7.278;2022-09-20T05:19:11;101971.47;;;10.90;100.00
5996;BME280;3026;53.612;7.278;2022-09-20T05:22:01;101969.72;;;10.99;100.00
5996;BME280;3026;53.612;7.278;2022-09-20T05:24:55;101971.72;;;11.06;100.00
5996;BME280;3026;53.612;7.278;2022-09-20T05:27:37;101974.88;;;11.12;100.00
5996;BME280;3026;53.612;7.278;2022-09-20T05:30:15;101972.53;;;11.17;100.00
5996;BME280;3026;53.612;7.278;2022-09-20T05:32:51;101979.41;;;11.21;100.00
5996;BME280;3026;53.612;7.278;2022-09-20T05:35:27;101982.56;;;11.26;100.00
5996;BME280;3026;53.612;7.278;2022-09-20T05:38:03;101983.97;;;11.30;100.00
5996;BME280;3026;53.612;7.278;2022-09-20T05:40:43;101983.69;;;11.33;100.00
5996;BME280;3026;53.612;7.278;2022-09-20T05:43:18;101982.38;;;11.37;100.00
5996;BME280;3026;53.612;7.278;2022-09-20T05:46:01;101977.63;;;11.39;100.00
5996;BME280;3026;53.612;7.278;2022-09-20T05:48:36;101975.59;;;11.41;100.00
5996;BME280;3026;53.612;7.278;2022-09-20T05:51:11;101988.25;;;11.42;100.00
5996;BME280;3026;53.612;7.278;2022-09-20T05:54:06;101975.59;;;11.41;100.00
5996;BME280;3026;53.612;7.278;2022-09-20T05:56:44;101982.47;;;11.45;100.00
5996;BME280;3026;53.612;7.278;2022-09-20T05:59:24;101979.63;;;11.47;100.00
5996;BME280;3026;53.612;7.278;2022-09-20T06:02:12;101983.91;;;11.49;100.00
5996;BME280;3026;53.612;7.278;2022-09-20T06:04:50;101985.63;;;11.50;100.00
5996;BME280;3026;53.612;7.278;2022-09-20T06:07:29;101987.34;;;11.51;100.00
5996;BME280;3026;53.612;7.278;2022-09-20T06:10:16;101986.34;;;11.52;100.00
5996;BME280;3026;53.612;7.278;2022-09-20T06:12:52;101981.88;;;11.51;100.00
5996;BME280;3026;53.612;7.278;2022-09-20T06:15:26;101986.50;;;11.51;100.00
5996;BME280;3026;53.612;7.278;2022-09-20T06:18:05;101997.09;;;11.54;100.00
5996;BME280;3026;53.612;7.278;2022-09-20T06:20:41;101990.19;;;11.59;100.00
5996;BME280;3026;53.612;7.278;2022-09-20T06:23:11;101991.59;;;11.63;100.00
5996;BME280;3026;53.612;7.278;2022-09-20T06:25:44;102000.19;;;11.68;100.00
5996;BME280;3026;53.612;7.278;2022-09-20T06:28:17;102005.06;;;11.75;100.00
5996;BME280;3026;53.612;7.278;2022-09-20T06:30:47;102011.94;;;11.79;100.00
5996;BME280;3026;53.612;7.278;2022-09-20T06:33:16;102018.00;;;11.82;100.00
5996;BME280;3026;53.612;7.278;2022-09-20T06:35:48;102012.38;;;11.84;100.00
5996;BME280;3026;53.612;7.278;2022-09-20T06:38:30;102013.78;;;11.88;100.00
5996;BME280;3026;53.612;7.278;2022-09-20T06:41:19;102023.28;;;11.93;100.00
5996;BME280;3026;53.612;7.278;2022-09-20T06:43:53;102026.38;;;11.98;100.00
5996;BME280;3026;53.612;7.278;2022-09-20T06:46:23;102020.75;;;12.00;100.00
5996;BME280;3026;53.612;7.278;2022-09-20T06:48:50;102036.00;;;12.03;100.00
5996;BME280;3026;53.612;7.278;2022-09-20T06:51:19;102030.53;;;12.03;100.00
5996;BME280;3026;53.612;7.278;2022-09-20T06:53:46;102031.38;;;12.03;100.00
5996;BME280;3026;53.612;7.278;2022-09-20T06:56:16;102035.88;;;12.04;100.00
5996;BME280;3026;53.612;7.278;2022-09-20T06:58:44;102027.34;;;12.07;100.00
5996;BME280;3026;53.612;7.278;2022-09-20T07:01:12;102028.75;;;12.11;100.00
5996;BME280;3026;53.612;7.278;2022-09-20T07:03:39;102037.38;;;12.16;100.00
5996;BME280;3026;53.612;7.278;2022-09-20T07:06:06;102032.75;;;12.17;100.00
5996;BME280;3026;53.612;7.278;2022-09-20T07:08:35;102032.75;;;12.17;100.00
5996;BME280;3026;53.612;7.278;2022-09-20T07:11:03;102039.63;;;12.21;100.00
5996;BME280;3026;53.612;7.278;2022-09-20T07:13:31;102046.34;;;12.26;100.00
5996;BME280;3026;53.612;7.278;2022-09-20T07:16:01;102039.25;;;12.34;100.00
5996;BME280;3026;53.612;7.278;2022-09-20T07:18:29;102045.84;;;12.41;100.00
5996;BME280;3026;53.612;7.278;2022-09-20T07:20:57;102045.19;;;12.47;100.00
5996;BME280;3026;53.612;7.278;2022-09-20T07:23:24;102056.38;;;12.53;100.00
5996;BME280;3026;53.612;7.278;2022-09-20T07:25:53;102049.41;;;12.59;100.00
5996;BME280;3026;53.612;7.278;2022-09-20T07:28:22;102052.84;;;12.61;100.00
5996;BME280;3026;53.612;7.278;2022-09-20T07:30:48;102057.16;;;12.64;100.00
5996;BME280;3026;53.612;7.278;2022-09-20T07:33:16;102057.72;;;12.67;100.00
5996;BME280;3026;53.612;7.278;2022-09-20T07:35:46;102055.34;;;12.72;100.00
5996;BME280;3026;53.612;7.278;2022-09-20T07:38:13;102050.28;;;12.77;100.00
5996;BME280;3026;53.612;7.278;2022-09-20T07:40:41;102055.84;;;12.85;100.00
5996;BME280;3026;53.612;7.278;2022-09-20T07:43:10;102055.72;;;12.95;100.00
5996;BME280;3026;53.612;7.278;2022-09-20T07:45:37;102055.09;;;13.01;100.00
5996;BME280;3026;53.612;7.278;2022-09-20T07:48:04;102063.84;;;13.05;100.00
5996;BME280;3026;53.612;7.278;2022-09-20T07:50:35;102070.00;;;13.07;100.00
5996;BME280;3026;53.612;7.278;2022-09-20T07:53:02;102068.88;;;13.09;100.00
5996;BME280;3026;53.612;7.278;2022-09-20T07:55:31;102077.22;;;13.08;100.00
5996;BME280;3026;53.612;7.278;2022-09-20T07:57:59;102087.31;;;13.07;100.00
5996;BME280;3026;53.612;7.278;2022-09-20T08:00:27;102088.16;;;13.08;100.00
5996;BME280;3026;53.612;7.278;2022-09-20T08:02:58;102094.66;;;13.07;100.00
5996;BME280;3026;53.612;7.278;2022-09-20T08:05:25;102108.06;;;13.10;100.00
5996;BME280;3026;53.612;7.278;2022-09-20T08:07:52;102104.28;;;13.11;100.00
5996;BME280;3026;53.612;7.278;2022-09-20T08:10:20;102109.78;;;13.11;100.00
5996;BME280;3026;53.612;7.278;2022-09-20T08:12:47;102115.25;;;13.11;100.00
5996;BME280;3026;53.612;7.278;2022-09-20T08:15:14;102113.22;;;13.13;100.00
5996;BME280;3026;53.612;7.278;2022-09-20T08:17:45;102116.81;;;13.13;100.00
5996;BME280;3026;53.612;7.278;2022-09-20T08:20:12;102122.97;;;13.15;100.00
5996;BME280;3026;53.612;7.278;2022-09-20T08:22:39;102120.41;;;13.14;100.00
5996;BME280;3026;53.612;7.278;2022-09-20T08:25:08;102117.28;;;13.09;100.00
5996;BME280;3026;53.612;7.278;2022-09-20T08:27:35;102101.16;;;13.06;100.00
5996;BME280;3026;53.612;7.278;2022-09-20T08:30:03;102108.34;;;13.07;100.00
5996;BME280;3026;53.612;7.278;2022-09-20T08:32:31;102095.38;;;13.09;100.00
5996;BME280;3026;53.612;7.278;2022-09-20T08:34:59;102087.53;;;13.14;100.00
5996;BME280;3026;53.612;7.278;2022-09-20T08:37:26;102101.63;;;13.19;100.00
5996;BME280;3026;53.612;7.278;2022-09-20T08:39:53;102097.56;;;13.23;100.00
5996;BME280;3026;53.612;7.278;2022-09-20T08:42:24;102093.50;;;13.27;100.00
5996;BME280;3026;53.612;7.278;2022-09-20T08:44:55;102096.63;;;13.32;100.00
5996;BME280;3026;53.612;7.278;2022-09-20T08:47:25;102099.72;;;13.37;100.00
5996;BME280;3026;53.612;7.278;2022-09-20T08:49:53;102097.69;;;13.39;100.00
5996;BME280;3026;53.612;7.278;2022-09-20T08:52:26;102101.97;;;13.42;100.00
5996;BME280;3026;53.612;7.278;2022-09-20T08:54:55;102102.22;;;13.49;100.00
5996;BME280;3026;53.612;7.278;2022-09-20T08:57:26;102104.69;;;13.60;100.00
5996;BME280;3026;53.612;7.278;2022-09-20T08:59:57;102103.72;;;13.69;100.00
5996;BME280;3026;53.612;7.278;2022-09-20T09:02:24;102102.41;;;13.81;100.00
5996;BME280;3026;53.612;7.278;2022-09-20T09:04:51;102102.81;;;13.94;100.00
5996;BME280;3026;53.612;7.278;2022-09-20T09:07:21;102097.22;;;14.04;100.00
5996;BME280;3026;53.612;7.278;2022-09-20T09:09:50;102097.94;;;14.14;100.00
5996;BME280;3026;53.612;7.278;2022-09-20T09:12:21;102102.22;;;14.17;100.00
5996;BME280;3026;53.612;7.278;2022-09-20T09:14:49;102093.34;;;14.31;100.00
5996;BME280;3026;53.612;7.278;2022-09-20T09:17:21;102094.06;;;14.41;100.00
5996;BME280;3026;53.612;7.278;2022-09-20T09:19:51;102098.59;;;14.50;100.00
5996;BME280;3026;53.612;7.278;2022-09-20T09:22:22;102108.56;;;14.59;100.00
5996;BME280;3026;53.612;7.278;2022-09-20T09:25:09;102113.88;;;14.53;100.00
5996;BME280;3026;53.612;7.278;2022-09-20T09:27:48;102115.44;;;14.64;100.00
5996;BME280;3026;53.612;7.278;2022-09-20T09:30:19;102120.59;;;14.75;100.00
5996;BME280;3026;53.612;7.278;2022-09-20T09:32:46;102131.97;;;15.12;100.00
5996;BME280;3026;53.612;7.278;2022-09-20T09:35:27;102123.03;;;15.27;100.00
5996;BME280;3026;53.612;7.278;2022-09-20T09:37:58;102130.25;;;15.28;100.00
5996;BME280;3026;53.612;7.278;2022-09-20T09:40:27;102131.28;;;15.27;100.00
5996;BME280;3026;53.612;7.278;2022-09-20T09:42:56;102126.81;;;15.26;100.00
5996;BME280;3026;53.612;7.278;2022-09-20T09:45:27;102132.66;;;15.23;100.00
5996;BME280;3026;53.612;7.278;2022-09-20T09:47:56;102130.94;;;15.22;100.00
5996;BME280;3026;53.612;7.278;2022-09-20T09:50:25;102128.38;;;15.20;100.00
5996;BME280;3026;53.612;7.278;2022-09-20T09:53:02;102129.56;;;15.17;100.00
5996;BME280;3026;53.612;7.278;2022-09-20T09:56:03;102140.88;;;15.14;100.00
5996;BME280;3026;53.612;7.278;2022-09-20T09:58:44;102144.00;;;15.11;100.00
5996;BME280;3026;53.612;7.278;2022-09-20T10:01:22;102136.94;;;15.09;100.00
5996;BME280;3026;53.612;7.278;2022-09-20T10:03:59;102149.16;;;15.06;100.00
5996;BME280;3026;53.612;7.278;2022-09-20T10:06:30;102143.63;;;14.98;100.00
5996;BME280;3026;53.612;7.278;2022-09-20T10:09:14;102136.78;;;14.94;100.00
5996;BME280;3026;53.612;7.278;2022-09-20T10:11:54;102142.97;;;14.96;100.00
5996;BME280;3026;53.612;7.278;2022-09-20T10:14:35;102143.66;;;15.06;100.00
5996;BME280;3026;53.612;7.278;2022-09-20T10:17:15;102139.19;;;15.22;100.00
5996;BME280;3026;53.612;7.278;2022-09-20T10:19:54;102142.97;;;15.29;100.00
5996;BME280;3026;53.612;7.278;2022-09-20T10:22:30;102142.25;;;15.27;100.00
5996;BME280;3026;53.612;7.278;2022-09-20T10:25:12;102139.19;;;15.22;100.00
5996;BME280;3026;53.612;7.278;2022-09-20T10:27:54;102136.78;;;15.18;100.00
5996;BME280;3026;53.612;7.278;2022-09-20T10:30:27;102135.06;;;15.17;100.00
5996;BME280;3026;53.612;7.278;2022-09-20T10:33:02;102135.06;;;15.17;100.00
5996;BME280;3026;53.612;7.278;2022-09-20T10:35:49;102137.28;;;15.22;100.00
5996;BME280;3026;53.612;7.278;2022-09-20T10:38:24;102138.84;;;15.33;100.00
5996;BME280;3026;53.612;7.278;2022-09-20T10:41:13;102150.16;;;15.38;100.00
5996;BME280;3026;53.612;7.278;2022-09-20T10:44:14;102157.22;;;15.40;100.00
5996;BME280;3026;53.612;7.278;2022-09-20T10:46:53;102154.31;;;15.34;100.00
5996;BME280;3026;53.612;7.278;2022-09-20T10:49:33;102151.22;;;15.29;100.00
5996;BME280;3026;53.612;7.278;2022-09-20T10:52:11;102158.41;;;15.22;100.00
5996;BME280;3026;53.612;7.278;2022-09-20T10:54:54;102157.72;;;15.11;100.00
5996;BME280;3026;53.612;7.278;2022-09-20T10:57:52;102148.09;;;15.15;100.00
5996;BME280;3026;53.612;7.278;2022-09-20T11:00:22;102157.38;;;15.47;100.00
5996;BME280;3026;53.612;7.278;2022-09-20T11:03:03;102160.44;;;15.85;100.00
5996;BME280;3026;53.612;7.278;2022-09-20T11:05:44;102168.13;;;16.05;100.00
5996;BME280;3026;53.612;7.278;2022-09-20T11:08:19;102168.97;;;16.22;100.00
5996;BME280;3026;53.612;7.278;2022-09-20T11:10:53;102170.47;;;16.33;100.00
5996;BME280;3026;53.612;7.278;2022-09-20T11:13:29;102175.72;;;16.43;100.00
5996;BME280;3026;53.612;7.278;2022-09-20T11:16:03;102180.63;;;16.32;100.00
5996;BME280;3026;53.612;7.278;2022-09-20T11:18:36;102186.81;;;16.26;100.00
5996;BME280;3026;53.612;7.278;2022-09-20T11:21:07;102186.16;;;16.16;100.00
5996;BME280;3026;53.612;7.278;2022-09-20T11:23:44;102188.22;;;16.14;100.00
5996;BME280;3026;53.612;7.278;2022-09-20T11:26:20;102177.59;;;16.11;100.00
5996;BME280;3026;53.612;7.278;2022-09-20T11:28:51;102185.50;;;16.06;100.00
5996;BME280;3026;53.612;7.278;2022-09-20T11:31:24;102184.47;;;16.07;100.00
5996;BME280;3026;53.612;7.278;2022-09-20T11:33:56;102190.31;;;16.12;100.00
5996;BME280;3026;53.612;7.278;2022-09-20T11:36:29;102186.25;;;16.39;100.00
5996;BME280;3026;53.612;7.278;2022-09-20T11:39:02;102186.53;;;16.52;100.00
5996;BME280;3026;53.612;7.278;2022-09-20T11:41:31;102192.88;;;16.61;100.00
5996;BME280;3026;53.612;7.278;2022-09-20T11:44:01;102191.47;;;16.73;100.00
5996;BME280;3026;53.612;7.278;2022-09-20T11:46:35;102195.56;;;16.77;100.00
5996;BME280;3026;53.612;7.278;2022-09-20T11:49:08;102198.88;;;16.73;100.00
5996;BME280;3026;53.612;7.278;2022-09-20T11:52:02;102202.84;;;16.70;100.00
5996;BME280;3026;53.612;7.278;2022-09-20T11:54:52;102202.56;;;16.49;100.00
5996;BME280;3026;53.612;7.278;2022-09-20T11:57:23;102199.84;;;16.41;100.00
5996;BME280;3026;53.612;7.278;2022-09-20T11:59:53;102201.25;;;16.28;100.00
5996;BME280;3026;53.612;7.278;2022-09-20T12:02:25;102205.03;;;16.27;100.00
5996;BME280;3026;53.612;7.278;2022-09-20T12:04:56;102208.47;;;16.29;100.00
5996;BME280;3026;53.612;7.278;2022-09-20T12:07:26;102216.41;;;16.24;100.00
5996;BME280;3026;53.612;7.278;2022-09-20T12:09:58;102201.75;;;16.32;100.00
5996;BME280;3026;53.612;7.278;2022-09-20T12:12:32;102204.34;;;16.33;100.00
5996;BME280;3026;53.612;7.278;2022-09-20T12:15:06;102203.34;;;16.26;100.00
5996;BME280;3026;53.612;7.278;2022-09-20T12:18:01;102207.78;;;16.36;100.00
5996;BME280;3026;53.612;7.278;2022-09-20T12:24:09;102204.28;;;16.50;100.00
5996;BME280;3026;53.612;7.278;2022-09-20T12:26:50;102203.78;;;16.46;100.00
5996;BME280;3026;53.612;7.278;2022-09-20T12:30:01;102205.78;;;16.21;100.00
5996;BME280;3026;53.612;7.278;2022-09-20T12:32:44;102207.13;;;16.17;100.00
5996;BME280;3026;53.612;7.278;2022-09-20T12:38:33;102205.78;;;16.21;100.00
5996;BME280;3026;53.612;7.278;2022-09-20T12:41:11;102197.50;;;16.21;100.00
5996;BME280;3026;53.612;7.278;2022-09-20T12:43:48;102208.53;;;16.13;100.00
5996;BME280;3026;53.612;7.278;2022-09-20T12:46:21;102206.81;;;16.12;100.00
5996;BME280;3026;53.612;7.278;2022-09-20T12:48:50;102209.22;;;16.15;100.00
5996;BME280;3026;53.612;7.278;2022-09-20T12:51:35;102208.19;;;16.16;100.00
5996;BME280;3026;53.612;7.278;2022-09-20T12:54:20;102208.84;;;16.18;100.00
5996;BME280;3026;53.612;7.278;2022-09-20T12:56:47;102209.19;;;16.23;100.00
5996;BME280;3026;53.612;7.278;2022-09-20T12:59:25;102219.50;;;16.29;100.00
5996;BME280;3026;53.612;7.278;2022-09-20T13:01:55;102217.41;;;16.31;100.00
5996;BME280;3026;53.612;7.278;2022-09-20T13:04:54;102216.56;;;16.31;100.00
5996;BME280;3026;53.612;7.278;2022-09-20T13:07:45;102210.16;;;16.39;100.00
5996;BME280;3026;53.612;7.278;2022-09-20T13:10:26;102217.72;;;16.45;100.00
5996;BME280;3026;53.612;7.278;2022-09-20T13:12:59;102218.59;;;16.45;100.00
5996;BME280;3026;53.612;7.278;2022-09-20T13:15:27;102220.63;;;16.43;100.00
5996;BME280;3026;53.612;7.278;2022-09-20T13:18:00;102231.31;;;16.46;100.00
5996;BME280;3026;53.612;7.278;2022-09-20T13:20:30;102230.47;;;16.46;100.00
5996;BME280;3026;53.612;7.278;2022-09-20T13:23:00;102230.47;;;16.46;100.00
5996;BME280;3026;53.612;7.278;2022-09-20T13:25:29;102232.50;;;16.44;100.00
5996;BME280;3026;53.612;7.278;2022-09-20T13:28:04;102233.41;;;16.44;100.00
5996;BME280;3026;53.612;7.278;2022-09-20T13:30:32;102232.88;;;16.41;100.00
5996;BME280;3026;53.612;7.278;2022-09-20T13:33:14;102226.88;;;16.37;100.00
5996;BME280;3026;53.612;7.278;2022-09-20T13:35:44;102227.72;;;16.38;100.00
5996;BME280;3026;53.612;7.278;2022-09-20T13:38:16;102229.25;;;16.40;100.00
5996;BME280;3026;53.612;7.278;2022-09-20T13:40:50;102232.66;;;16.50;100.00
5996;BME280;3026;53.612;7.278;2022-09-20T13:43:25;102236.63;;;16.56;100.00
5996;BME280;3026;53.612;7.278;2022-09-20T13:45:55;102228.00;;;16.51;100.00
5996;BME280;3026;53.612;7.278;2022-09-20T13:48:24;102232.19;;;16.47;100.00
5996;BME280;3026;53.612;7.278;2022-09-20T13:50:53;102236.81;;;16.46;100.00
5996;BME280;3026;53.612;7.278;2022-09-20T13:53:22;102240.06;;;16.50;100.00
5996;BME280;3026;53.612;7.278;2022-09-20T13:55:50;102245.03;;;16.54;100.00
5996;BME280;3026;53.612;7.278;2022-09-20T13:58:20;102245.56;;;16.58;100.00
5996;BME280;3026;53.612;7.278;2022-09-20T14:00:52;102249.66;;;16.62;100.00
5996;BME280;3026;53.612;7.278;2022-09-20T14:03:20;102246.91;;;16.62;100.00
5996;BME280;3026;53.612;7.278;2022-09-20T14:05:49;102245.88;;;16.63;100.00
5996;BME280;3026;53.612;7.278;2022-09-20T14:08:21;102249.00;;;16.68;100.00